Airfield :
LOGIN :

Register | Disclaimer

   EN    FR    IT 

 










Legend :    VFR   Marginal VFR   IFR   Intensive IFR   Very Intensive IFR
Visi :
Ceiling :
>= 8 km
>= 3000ft
5 to 8 km
1000 to 3000 ft
1500m to 5 km
500 to 1000 ft
800 to 1500m
200 to 500 ft
< 800m
< 200 ft
Symbols :   Thunderstorms  Fog  Heavy snow  Heavy precipitations  Wind > 20 kt
SIGMETs :     Misc.  Thunderstorms  Icing  Turbulence  Mountain Waves  Volcanic Ashes







- Airport Elevation : 1906 ft
- IATA code : INN


LOWI - Innsbruck

CURRENT METAR :
  • 141820Z 12005KT 070V140 4000 -RASN FEW001 BKN005 BKN025 01/00 Q1001 R08/19//95 TEMPO 1200 SHSN VV004

EXPIRED METARs :
  • 141750Z 09004KT 060V120 4000 -SN FEW001 BKN006 OVC025 01/00 Q1002 R08/19//95 TEMPO 1200 SHSN VV004
  • 141720Z 09005KT 060V130 2000 SN VV004 00/00 Q1003 R08/19//95 TEMPO 1200 SHSN VV004
  • 141650Z 12002KT 2000 SN SCT003 BKN007 00/00 Q1003 R08/19//95 TEMPO 1200 SHSN VV004
  • 141620Z VRB02KT 3000 SN BKN004 00/00 Q1003 R08/19//95 TEMPO 1200 SHSN VV004
  • 141550Z VRB02KT 3500 -SN BKN004 01/00 Q1004 R08/19//95 TEMPO 1200 SHSN VV004

TAF TAF LOWI
Valid from the 14 at 18:00 until the 15 at 18:00 UTC


141715Z 1418/1518 27005KT 4000 -SN BR SCT004 BKN012 TX04/1513Z TNM00/1508Z
TEMPO 1418/1505 0800 SN VV004
BECMG 1507/1509 9999 FEW030
No reported NOTAMs for that airfield.



MET'MAP, your aeronautical weather chart ! - Copyright ORBIFLY December 2007 - Disclaimer

ORBIFLY MET'MAP TEAM :

Programming & Development : Alexandra Zaïnal
Concept & Development : Baudouin d'Aumeries
Co-Development & Prog : Marc-Olivier Méhu
Technical & hardware support : Manuel Goepfert

Contact : metmap@orbifly.com




SOURCES & CREDITS :

   NOAA